Time;durP1;ratioP1;P1;durP2;ratioP2;P2;SDS_P1;SDS_P2;PMS_P1;PMS_P2;Temp;Humidity;BMP_temperature;BMP_pressure;BME280_temperature;BME280_humidity;BME280_pressure;Samples;Min_cycle;Max_cycle;Signal;HPM_P1;HPM_P2
2022/11/19 00:01:59;;;;;;;7.95;4.65;;;6.50;83.90;;;;;;5026056;28;20205;-68
2022/11/19 00:04:27;;;;;;;7.00;3.95;;;6.40;84.20;;;;;;5024709;28;20292;-68
2022/11/19 00:06:55;;;;;;;6.30;3.88;;;6.40;84.30;;;;;;5022378;28;20221;-69
2022/11/19 00:09:24;;;;;;;7.85;4.70;;;6.40;84.40;;;;;;5024471;28;20236;-68
2022/11/19 00:14:38;;;;;;;9.50;3.97;;;6.40;84.00;;;;;;5025519;28;20205;-68
2022/11/19 00:17:06;;;;;;;6.38;3.53;;;6.40;84.20;;;;;;5029639;28;21259;-68
2022/11/19 00:19:34;;;;;;;6.97;3.92;;;6.40;84.20;;;;;;5023444;28;20224;-69
2022/11/19 00:22:02;;;;;;;6.28;3.90;;;6.40;84.20;;;;;;5024789;28;20205;-68
2022/11/19 00:24:31;;;;;;;6.85;3.50;;;6.40;84.20;;;;;;5027934;28;20920;-68
2022/11/19 00:26:59;;;;;;;7.40;4.18;;;6.40;84.10;;;;;;5020484;28;20208;-69
2022/11/19 00:29:27;;;;;;;6.50;3.85;;;6.40;84.10;;;;;;5024678;28;20263;-68
2022/11/19 00:31:55;;;;;;;8.00;4.60;;;6.40;83.90;;;;;;5027319;28;20209;-69
2022/11/19 00:34:23;;;;;;;7.43;3.95;;;6.40;84.20;;;;;;5023040;28;20205;-69
2022/11/19 00:36:51;;;;;;;8.50;4.30;;;6.40;84.20;;;;;;5026282;28;20263;-69
2022/11/19 00:39:19;;;;;;;9.60;4.75;;;6.40;84.10;;;;;;5026259;28;20270;-69
2022/11/19 00:41:49;;;;;;;13.02;5.50;;;6.40;84.00;;;;;;5022089;28;20217;-69
2022/11/19 00:44:17;;;;;;;7.80;4.93;;;6.40;83.80;;;;;;5025592;28;20197;-68
2022/11/19 00:46:45;;;;;;;9.68;4.90;;;6.40;83.80;;;;;;5021365;28;20201;-69
2022/11/19 00:49:13;;;;;;;9.13;5.40;;;6.40;83.90;;;;;;5024182;28;20225;-68
2022/11/19 00:51:41;;;;;;;10.60;5.32;;;6.40;84.00;;;;;;5020637;28;20217;-68
2022/11/19 00:54:09;;;;;;;7.80;4.72;;;6.30;83.60;;;;;;5022984;28;20221;-69
2022/11/19 00:56:37;;;;;;;13.80;6.57;;;6.20;83.30;;;;;;5022617;28;20210;-68
2022/11/19 00:59:07;;;;;;;11.07;6.13;;;6.20;83.30;;;;;;5024153;28;20271;-68
2022/11/19 01:01:35;;;;;;;10.52;6.47;;;6.10;83.50;;;;;;5022182;28;20338;-69
2022/11/19 01:04:03;;;;;;;13.00;5.90;;;6.10;83.60;;;;;;5023542;28;20198;-69
2022/11/19 01:06:31;;;;;;;10.38;6.40;;;6.10;83.70;;;;;;5026457;28;20205;-68
2022/11/19 01:08:59;;;;;;;10.18;6.22;;;6.10;83.60;;;;;;5026548;28;20233;-69
2022/11/19 01:11:29;;;;;;;9.00;4.97;;;6.00;83.60;;;;;;5029008;28;20217;-68
2022/11/19 01:13:58;;;;;;;9.90;5.15;;;6.00;83.60;;;;;;5023936;28;20684;-69
2022/11/19 01:16:30;;;;;;;9.20;5.93;;;6.00;83.60;;;;;;5032166;28;20674;-68
2022/11/19 01:18:58;;;;;;;10.90;4.63;;;5.90;83.70;;;;;;5025898;28;20240;-69
2022/11/19 01:21:29;;;;;;;9.80;5.30;;;6.00;83.80;;;;;;5027668;28;20251;-68
2022/11/19 01:23:59;;;;;;;8.25;4.65;;;6.00;83.70;;;;;;5025838;28;20216;-68
2022/11/19 01:26:30;;;;;;;10.80;6.35;;;6.00;83.80;;;;;;5024086;28;20209;-69
2022/11/19 01:28:58;;;;;;;8.70;5.15;;;6.00;83.60;;;;;;5027628;28;20229;-69
2022/11/19 01:31:29;;;;;;;7.85;5.28;;;6.00;83.40;;;;;;5025500;28;20955;-69
2022/11/19 01:33:58;;;;;;;9.50;6.10;;;5.90;83.30;;;;;;5027452;28;20585;-68
2022/11/19 01:36:28;;;;;;;9.00;5.40;;;5.80;83.30;;;;;;5028660;28;20204;-68
2022/11/19 01:38:57;;;;;;;9.50;5.97;;;5.70;83.10;;;;;;5032714;28;20239;-69
2022/11/19 01:41:32;;;;;;;10.85;6.40;;;5.70;83.20;;;;;;5032370;28;20200;-69
2022/11/19 01:44:02;;;;;;;11.90;6.63;;;5.60;83.30;;;;;;5025889;28;20220;-68
2022/11/19 01:46:33;;;;;;;11.07;7.22;;;5.60;83.10;;;;;;5030743;28;20886;-69
2022/11/19 01:49:04;;;;;;;14.25;8.43;;;5.50;83.00;;;;;;5025324;28;20651;-69
2022/11/19 01:51:35;;;;;;;13.48;8.40;;;5.50;83.20;;;;;;5020424;28;20276;-68
2022/11/19 01:54:07;;;;;;;13.82;8.98;;;5.40;83.00;;;;;;5023260;28;20717;-68
2022/11/19 01:56:35;;;;;;;17.40;10.23;;;5.30;83.00;;;;;;5025173;28;20209;-69
2022/11/19 01:59:08;;;;;;;15.65;9.85;;;5.30;83.10;;;;;;5026413;28;20239;-69
2022/11/19 02:01:38;;;;;;;14.35;9.07;;;5.30;83.30;;;;;;5028287;28;20205;-70
2022/11/19 02:04:07;;;;;;;15.15;9.02;;;5.30;83.30;;;;;;5025378;28;20636;-69
2022/11/19 02:06:36;;;;;;;17.10;9.90;;;5.40;83.10;;;;;;5021922;28;20286;-68
2022/11/19 02:09:04;;;;;;;14.98;10.18;;;5.30;83.00;;;;;;5020731;28;20226;-70
2022/11/19 02:11:49;;;;;;;15.82;10.18;;;5.30;82.80;;;;;;5020720;28;20208;-70
2022/11/19 02:14:31;;;;;;;16.85;10.95;;;5.30;83.00;;;;;;5026719;28;20232;-69
2022/11/19 02:17:09;;;;;;;18.25;10.38;;;5.20;83.00;;;;;;5025733;28;20765;-68
2022/11/19 02:20:06;;;;;;;19.45;11.98;;;5.20;83.10;;;;;;5026905;28;20233;-69
2022/11/19 02:23:02;;;;;;;23.25;12.45;;;5.20;82.80;;;;;;5019977;28;20852;-69
2022/11/19 02:25:45;;;;;;;21.08;12.60;;;5.10;82.70;;;;;;5023524;28;20205;-68
2022/11/19 02:28:28;;;;;;;23.27;13.60;;;5.00;82.30;;;;;;5027272;28;20221;-70
2022/11/19 02:31:05;;;;;;;24.98;14.27;;;4.90;82.50;;;;;;5019876;28;20532;-68
2022/11/19 02:33:40;;;;;;;24.63;14.30;;;4.90;82.60;;;;;;5020031;28;20220;-68
2022/11/19 02:36:14;;;;;;;24.70;14.38;;;4.80;82.70;;;;;;5023224;28;20205;-68
2022/11/19 02:38:48;;;;;;;24.92;14.73;;;4.80;82.60;;;;;;5025845;28;20224;-68
2022/11/19 02:47:06;;;;;;;26.27;15.80;;;4.80;83.10;;;;;;5032770;28;20214;-69
2022/11/19 02:49:39;;;;;;;29.00;16.70;;;4.90;82.90;;;;;;5022161;28;20226;-69
2022/11/19 02:52:08;;;;;;;26.70;14.50;;;4.90;82.70;;;;;;5022328;28;20260;-68
2022/11/19 02:54:37;;;;;;;25.83;16.17;;;4.80;82.40;;;;;;5023491;28;20217;-68
2022/11/19 02:57:05;;;;;;;27.08;17.15;;;4.80;82.70;;;;;;5020387;28;20213;-68
2022/11/19 03:05:21;;;;;;;27.60;17.30;;;4.80;82.60;;;;;;5022426;28;20939;-68
2022/11/19 03:07:50;;;;;;;32.53;19.23;;;4.80;82.80;;;;;;5023026;28;20217;-70
2022/11/19 03:10:20;;;;;;;28.40;16.83;;;4.80;82.70;;;;;;5026725;28;21160;-68
2022/11/19 03:12:54;;;;;;;31.65;18.30;;;4.80;82.60;;;;;;5020593;28;20221;-68
2022/11/19 03:18:33;;;;;;;35.83;19.90;;;4.80;82.40;;;;;;5022375;28;20738;-68
2022/11/19 03:21:07;;;;;;;30.92;19.73;;;4.80;82.60;;;;;;5025556;28;20209;-68
2022/11/19 03:23:40;;;;;;;32.45;18.33;;;4.70;82.40;;;;;;5025491;28;20199;-68
2022/11/19 03:26:18;;;;;;;32.92;18.10;;;4.70;82.50;;;;;;5020485;28;20618;-68
2022/11/19 03:28:47;;;;;;;31.77;18.55;;;4.70;82.50;;;;;;5027236;28;20248;-68
2022/11/19 03:31:18;;;;;;;41.03;21.80;;;4.70;82.30;;;;;;5023459;28;20248;-70
2022/11/19 03:33:52;;;;;;;35.20;20.08;;;4.70;82.20;;;;;;5020582;28;20261;-69
2022/11/19 03:36:22;;;;;;;35.60;19.98;;;4.60;82.30;;;;;;5022290;28;20299;-71
2022/11/19 03:38:55;;;;;;;35.08;20.67;;;4.60;82.40;;;;;;5021132;28;20241;-70
2022/11/19 03:41:25;;;;;;;32.65;20.08;;;4.60;82.40;;;;;;5024159;28;20209;-69
2022/11/19 03:43:58;;;;;;;34.63;20.15;;;4.60;82.40;;;;;;5025676;28;20205;-69
2022/11/19 03:46:27;;;;;;;35.20;21.58;;;4.60;82.50;;;;;;5026140;28;20682;-69
2022/11/19 03:48:59;;;;;;;35.53;21.02;;;4.60;82.50;;;;;;5023407;28;20236;-69
2022/11/19 03:51:35;;;;;;;35.28;20.65;;;4.70;82.30;;;;;;5023413;28;20210;-69
2022/11/19 03:54:03;;;;;;;36.35;20.65;;;4.60;82.30;;;;;;5021188;28;20228;-69
2022/11/19 03:56:34;;;;;;;35.50;20.20;;;4.60;82.40;;;;;;5027102;28;20217;-69
2022/11/19 03:59:04;;;;;;;39.28;22.63;;;4.60;82.30;;;;;;5022225;28;20244;-70
2022/11/19 04:01:35;;;;;;;35.35;21.45;;;4.60;82.50;;;;;;5018532;28;20209;-70
2022/11/19 04:06:51;;;;;;;35.55;20.63;;;4.60;82.10;;;;;;5020710;28;20815;-69
2022/11/19 04:09:19;;;;;;;35.63;20.27;;;4.60;81.90;;;;;;5022871;28;20236;-68
2022/11/19 04:11:48;;;;;;;37.15;21.20;;;4.50;81.70;;;;;;5018184;28;21168;-68
2022/11/19 04:14:15;;;;;;;38.42;21.08;;;4.40;81.70;;;;;;5017910;28;20568;-70
2022/11/19 04:16:43;;;;;;;37.78;19.90;;;4.30;81.90;;;;;;5019074;28;20209;-70
2022/11/19 04:19:12;;;;;;;36.40;19.98;;;4.30;82.10;;;;;;5022596;28;20760;-67
2022/11/19 04:21:40;;;;;;;39.00;22.17;;;4.30;82.20;;;;;;5019625;28;20224;-69
2022/11/19 04:24:09;;;;;;;34.38;19.75;;;4.30;82.20;;;;;;5019371;28;20206;-70
2022/11/19 04:26:37;;;;;;;37.95;22.15;;;4.30;82.20;;;;;;5022496;28;20206;-68
2022/11/19 04:29:05;;;;;;;33.83;20.02;;;4.30;82.20;;;;;;5018696;28;20236;-68
2022/11/19 04:31:33;;;;;;;33.47;20.33;;;4.30;82.40;;;;;;5024164;28;20198;-70
2022/11/19 04:34:01;;;;;;;35.33;20.90;;;4.30;82.40;;;;;;5019382;28;20244;-70
2022/11/19 04:36:31;;;;;;;38.00;22.30;;;4.30;82.40;;;;;;5023725;28;20221;-69
2022/11/19 04:38:59;;;;;;;33.70;20.70;;;4.30;82.40;;;;;;5024137;28;20275;-69
2022/11/19 04:41:27;;;;;;;35.40;20.13;;;4.30;82.20;;;;;;5028781;28;20251;-68
2022/11/19 04:43:55;;;;;;;33.08;19.48;;;4.30;82.10;;;;;;5020425;28;20221;-69
2022/11/19 04:46:23;;;;;;;33.33;18.90;;;4.30;82.20;;;;;;5027430;28;20266;-69
2022/11/19 04:48:51;;;;;;;34.22;19.58;;;4.30;82.20;;;;;;5023215;28;20279;-68
2022/11/19 04:51:19;;;;;;;39.63;22.15;;;4.30;82.40;;;;;;5024522;28;20233;-68
2022/11/19 04:53:49;;;;;;;34.95;18.98;;;4.30;82.50;;;;;;5024151;28;20243;-68
2022/11/19 04:56:17;;;;;;;34.20;18.65;;;4.40;82.50;;;;;;5025424;28;20787;-69
2022/11/19 04:58:45;;;;;;;36.22;20.25;;;4.40;82.10;;;;;;5021222;28;20233;-68
2022/11/19 05:01:13;;;;;;;33.08;20.30;;;4.40;82.20;;;;;;5023432;28;20201;-70
2022/11/19 05:03:41;;;;;;;31.50;19.02;;;4.30;82.00;;;;;;5024987;28;20241;-69
2022/11/19 05:06:09;;;;;;;34.20;20.48;;;4.30;81.90;;;;;;5018394;28;20194;-69
2022/11/19 05:08:38;;;;;;;31.50;19.67;;;4.20;82.00;;;;;;5022513;28;21011;-69
2022/11/19 05:11:07;;;;;;;35.15;20.05;;;4.20;81.90;;;;;;5018885;28;20263;-69
2022/11/19 05:13:35;;;;;;;39.05;22.80;;;4.10;81.90;;;;;;5023008;28;20205;-69
2022/11/19 05:16:04;;;;;;;35.22;19.77;;;4.10;82.00;;;;;;5018029;28;20236;-70
2022/11/19 05:18:32;;;;;;;32.22;19.15;;;4.10;82.00;;;;;;5025917;28;20330;-69
2022/11/19 05:21:00;;;;;;;33.95;18.88;;;4.10;81.90;;;;;;5019690;28;20209;-70
2022/11/19 05:23:28;;;;;;;36.03;20.90;;;4.00;82.10;;;;;;5020808;28;20202;-69
2022/11/19 05:25:56;;;;;;;33.25;19.15;;;4.00;82.00;;;;;;5021511;28;20275;-69
2022/11/19 05:28:25;;;;;;;34.15;19.35;;;4.00;82.10;;;;;;5023758;28;20636;-68
2022/11/19 05:31:05;;;;;;;34.35;19.63;;;4.00;82.20;;;;;;5023407;28;20266;-68
2022/11/19 05:33:33;;;;;;;37.83;19.50;;;4.00;82.10;;;;;;5022746;28;20218;-70
2022/11/19 05:36:02;;;;;;;37.40;20.67;;;4.00;82.00;;;;;;5018783;28;20226;-69
2022/11/19 05:38:30;;;;;;;37.35;22.17;;;3.90;82.10;;;;;;5025472;28;20224;-69
2022/11/19 05:40:58;;;;;;;34.13;19.90;;;3.90;82.20;;;;;;5025919;28;20205;-69
2022/11/19 05:43:27;;;;;;;35.05;19.02;;;3.90;82.20;;;;;;5026578;28;20209;-69
2022/11/19 05:45:58;;;;;;;33.10;19.52;;;3.80;82.10;;;;;;5027917;28;20205;-69
2022/11/19 05:48:26;;;;;;;32.50;19.25;;;3.80;82.10;;;;;;5020176;28;20221;-69
2022/11/19 05:50:54;;;;;;;31.33;18.02;;;3.80;82.30;;;;;;5023803;28;20228;-69
2022/11/19 05:53:22;;;;;;;32.35;20.67;;;3.80;82.20;;;;;;5024877;28;20205;-69
2022/11/19 05:55:50;;;;;;;31.58;19.13;;;3.80;82.30;;;;;;5029024;28;20221;-69
2022/11/19 05:58:18;;;;;;;34.85;21.05;;;3.70;82.20;;;;;;5026305;28;20225;-69
2022/11/19 06:00:48;;;;;;;32.70;18.17;;;3.80;82.30;;;;;;5031427;28;20205;-68
2022/11/19 06:03:16;;;;;;;29.45;17.52;;;3.80;82.30;;;;;;5030565;28;20585;-69
2022/11/19 06:05:44;;;;;;;32.08;19.52;;;3.80;82.50;;;;;;5020265;28;20201;-69
2022/11/19 06:08:12;;;;;;;34.45;21.02;;;3.80;82.50;;;;;;5028278;28;20253;-69
2022/11/19 06:10:40;;;;;;;33.38;18.35;;;3.80;82.50;;;;;;5034171;28;20201;-69
2022/11/19 06:13:08;;;;;;;31.65;18.45;;;3.90;82.60;;;;;;5026614;28;20201;-69
2022/11/19 06:15:36;;;;;;;31.15;17.38;;;3.90;82.50;;;;;;5023910;28;20230;-69
2022/11/19 06:18:05;;;;;;;33.53;18.10;;;3.90;82.30;;;;;;5029076;28;20210;-69
2022/11/19 06:20:33;;;;;;;37.13;19.50;;;3.90;82.40;;;;;;5028827;28;20209;-69
2022/11/19 06:23:01;;;;;;;33.83;19.00;;;3.90;82.40;;;;;;5024882;28;20206;-69
2022/11/19 06:25:29;;;;;;;33.15;18.77;;;4.00;82.20;;;;;;5029295;28;20789;-69
2022/11/19 06:27:57;;;;;;;32.05;19.38;;;3.90;82.20;;;;;;5023006;28;20201;-69
2022/11/19 06:30:25;;;;;;;34.35;19.52;;;3.90;82.30;;;;;;5024756;28;20198;-69
2022/11/19 06:32:53;;;;;;;32.03;18.27;;;3.90;82.30;;;;;;5017410;28;21007;-69
2022/11/19 06:35:22;;;;;;;29.75;18.50;;;3.90;82.30;;;;;;5024235;28;20221;-69
2022/11/19 06:37:50;;;;;;;33.30;18.83;;;3.90;82.50;;;;;;5021619;28;20216;-69
2022/11/19 06:40:18;;;;;;;36.50;18.23;;;3.90;82.30;;;;;;5024304;28;20254;-69
2022/11/19 06:42:46;;;;;;;31.85;18.45;;;3.90;82.10;;;;;;5026709;28;20225;-69
2022/11/19 06:45:18;;;;;;;32.70;17.63;;;3.80;82.10;;;;;;5030653;28;20201;-69
2022/11/19 06:47:48;;;;;;;34.70;19.58;;;3.80;82.20;;;;;;5023314;28;20626;-69
2022/11/19 06:50:17;;;;;;;33.33;19.08;;;3.80;82.30;;;;;;5029605;28;20208;-69
2022/11/19 06:52:46;;;;;;;31.20;16.90;;;3.80;82.30;;;;;;5027891;28;20209;-69
2022/11/19 06:55:14;;;;;;;30.10;17.38;;;3.80;82.30;;;;;;5026961;28;20618;-69
2022/11/19 06:57:42;;;;;;;28.58;16.40;;;3.70;82.10;;;;;;5029565;28;20220;-69
2022/11/19 07:00:12;;;;;;;32.78;19.83;;;3.70;82.30;;;;;;5024395;28;20679;-69
2022/11/19 07:02:40;;;;;;;33.22;18.75;;;3.70;82.30;;;;;;5026102;28;20283;-69
2022/11/19 07:05:08;;;;;;;35.83;18.70;;;3.70;82.30;;;;;;5031123;28;20639;-69
2022/11/19 07:07:36;;;;;;;38.50;19.38;;;3.70;82.40;;;;;;5017709;28;20739;-69
2022/11/19 07:10:07;;;;;;;34.60;18.45;;;3.70;82.50;;;;;;5031879;28;20989;-69
2022/11/19 07:12:35;;;;;;;34.05;19.17;;;3.70;82.50;;;;;;5025723;28;20205;-69
2022/11/19 07:15:04;;;;;;;30.65;18.27;;;3.80;82.50;;;;;;5025200;28;20205;-69
2022/11/19 07:17:32;;;;;;;36.95;22.95;;;3.80;82.50;;;;;;5023978;28;20252;-69
2022/11/19 07:20:00;;;;;;;47.50;24.35;;;3.80;82.40;;;;;;5022579;28;20234;-69
2022/11/19 07:22:28;;;;;;;46.45;26.15;;;3.80;82.50;;;;;;5025706;28;20674;-69
2022/11/19 07:24:56;;;;;;;35.30;20.13;;;3.80;82.60;;;;;;5021895;28;20197;-69
2022/11/19 07:27:25;;;;;;;34.40;19.80;;;3.80;82.60;;;;;;5024807;28;20270;-69
2022/11/19 07:29:53;;;;;;;33.20;19.85;;;3.80;82.60;;;;;;5025037;28;20233;-69
2022/11/19 07:32:21;;;;;;;29.85;18.08;;;3.80;82.50;;;;;;5025031;28;20546;-69
2022/11/19 07:34:49;;;;;;;30.05;18.67;;;3.80;82.50;;;;;;5029857;28;20205;-68
2022/11/19 07:37:17;;;;;;;30.40;17.73;;;3.90;82.50;;;;;;5026667;28;20229;-68
2022/11/19 07:39:45;;;;;;;31.33;19.45;;;3.90;82.60;;;;;;5028696;28;20229;-68
2022/11/19 07:45:04;;;;;;;31.85;18.95;;;3.90;82.40;;;;;;5025415;28;20242;-68
2022/11/19 07:47:33;;;;;;;33.38;18.95;;;3.90;82.50;;;;;;5022086;28;20201;-69
2022/11/19 07:50:01;;;;;;;37.70;21.55;;;3.90;82.40;;;;;;5023331;28;20319;-68
2022/11/19 07:52:30;;;;;;;41.90;21.98;;;3.90;82.40;;;;;;5025890;28;20197;-68
2022/11/19 07:54:58;;;;;;;34.90;21.95;;;3.90;82.60;;;;;;5025193;28;20687;-68
2022/11/19 07:57:26;;;;;;;34.03;21.17;;;3.90;82.60;;;;;;5029270;28;20229;-68
2022/11/19 07:59:57;;;;;;;33.55;21.13;;;3.90;82.50;;;;;;5019998;28;20220;-68
2022/11/19 08:02:27;;;;;;;34.75;18.80;;;3.90;82.50;;;;;;5020553;28;20197;-68
2022/11/19 08:04:55;;;;;;;28.15;16.90;;;3.90;82.50;;;;;;5023794;28;20284;-69
2022/11/19 08:07:23;;;;;;;28.52;17.20;;;3.90;82.50;;;;;;5029849;28;20197;-69
2022/11/19 08:09:51;;;;;;;35.15;17.48;;;3.90;82.50;;;;;;5023876;28;20252;-68
2022/11/19 08:12:19;;;;;;;32.72;17.90;;;3.90;82.60;;;;;;5028221;28;20625;-68
2022/11/19 08:14:47;;;;;;;32.10;17.58;;;3.90;82.80;;;;;;5025278;28;20212;-68
2022/11/19 08:20:01;;;;;;;31.65;18.55;;;3.90;82.60;;;;;;5024813;28;20267;-68
2022/11/19 08:22:30;;;;;;;34.42;18.83;;;4.00;82.50;;;;;;5025019;28;20214;-68
2022/11/19 08:24:58;;;;;;;31.25;16.38;;;4.00;82.40;;;;;;5016429;28;20206;-68
2022/11/19 08:27:25;;;;;;;29.50;16.88;;;3.90;82.50;;;;;;5026043;28;20208;-68
2022/11/19 08:29:53;;;;;;;33.20;18.48;;;3.90;82.50;;;;;;5025422;28;20236;-68
2022/11/19 08:32:22;;;;;;;27.73;16.67;;;3.90;82.50;;;;;;5023276;28;20201;-68
2022/11/19 08:34:49;;;;;;;32.33;17.73;;;3.80;82.60;;;;;;5023087;28;20209;-68
2022/11/19 08:37:19;;;;;;;37.95;19.05;;;3.90;82.70;;;;;;5027324;28;21082;-68
2022/11/19 08:39:47;;;;;;;36.38;18.33;;;3.90;82.70;;;;;;5026218;28;20299;-68
2022/11/19 08:45:00;;;;;;;30.40;17.25;;;3.90;82.50;;;;;;5024068;28;20219;-69
2022/11/19 08:47:28;;;;;;;31.15;17.40;;;3.80;82.50;;;;;;5027245;28;20192;-69
2022/11/19 08:49:56;;;;;;;36.60;19.95;;;3.80;82.60;;;;;;5027712;28;20233;-68
2022/11/19 08:52:25;;;;;;;41.30;20.52;;;3.80;82.80;;;;;;5021967;28;20205;-69
2022/11/19 08:54:53;;;;;;;40.80;22.85;;;3.80;82.60;;;;;;5027881;28;20612;-69
2022/11/19 08:57:21;;;;;;;49.15;25.92;;;3.80;82.80;;;;;;5024765;28;20623;-69
2022/11/19 08:59:50;;;;;;;59.00;29.17;;;3.90;82.90;;;;;;5024382;28;20228;-68
2022/11/19 09:02:19;;;;;;;70.05;34.58;;;3.90;82.80;;;;;;5022873;28;20917;-68
2022/11/19 09:04:46;;;;;;;52.33;26.67;;;3.90;82.80;;;;;;5017473;28;20251;-69
2022/11/19 09:07:14;;;;;;;40.30;22.77;;;3.90;82.90;;;;;;5021463;28;20641;-69
2022/11/19 09:09:44;;;;;;;37.05;20.92;;;4.00;82.90;;;;;;5024867;28;20916;-68
2022/11/19 09:12:12;;;;;;;32.75;17.95;;;4.00;82.90;;;;;;5018974;28;20220;-69
2022/11/19 09:14:40;;;;;;;33.55;19.20;;;4.10;82.90;;;;;;5022151;28;20205;-69
2022/11/19 09:17:08;;;;;;;34.97;19.75;;;4.10;82.90;;;;;;5020190;28;20218;-68
2022/11/19 09:19:36;;;;;;;27.85;16.17;;;4.10;82.70;;;;;;5022030;28;20752;-69
2022/11/19 09:22:04;;;;;;;34.55;17.45;;;4.10;82.40;;;;;;5023205;28;20217;-69
2022/11/19 09:24:32;;;;;;;42.67;23.80;;;4.10;82.40;;;;;;5021873;28;20216;-69
2022/11/19 09:27:01;;;;;;;37.28;20.38;;;4.00;82.40;;;;;;5024842;28;20201;-69
2022/11/19 09:29:29;;;;;;;40.55;26.92;;;4.00;82.70;;;;;;5026600;28;20892;-68
2022/11/19 09:31:57;;;;;;;34.22;17.67;;;4.00;82.70;;;;;;5026687;28;20201;-69
2022/11/19 09:34:25;;;;;;;27.40;16.25;;;4.00;82.60;;;;;;5027290;28;20235;-69
2022/11/19 09:36:53;;;;;;;31.45;17.65;;;4.00;82.40;;;;;;5030397;28;20236;-69
2022/11/19 09:39:22;;;;;;;29.90;16.30;;;3.90;82.40;;;;;;5025664;28;20236;-69
2022/11/19 09:41:55;;;;;;;29.40;17.30;;;3.90;82.50;;;;;;5028215;28;20205;-68
2022/11/19 09:44:53;;;;;;;31.40;16.63;;;3.80;82.50;;;;;;5026558;28;20201;-69
2022/11/19 09:47:31;;;;;;;30.27;18.50;;;3.80;82.40;;;;;;5027955;28;20799;-69
2022/11/19 09:50:11;;;;;;;38.78;20.27;;;3.80;82.60;;;;;;5029254;28;20224;-68
2022/11/19 09:52:45;;;;;;;40.83;21.10;;;3.80;82.60;;;;;;5024495;28;20209;-68
2022/11/19 09:55:19;;;;;;;31.05;16.95;;;3.80;82.70;;;;;;5024309;28;20224;-68
2022/11/19 09:57:50;;;;;;;34.03;19.20;;;3.80;82.70;;;;;;5026630;28;20929;-69
2022/11/19 10:00:23;;;;;;;34.78;19.65;;;3.80;82.70;;;;;;5023980;28;20202;-69
2022/11/19 10:02:52;;;;;;;41.50;21.33;;;3.80;82.70;;;;;;5029138;28;20740;-69
2022/11/19 10:05:30;;;;;;;35.67;19.88;;;3.80;82.70;;;;;;5030651;28;20283;-69
2022/11/19 10:08:11;;;;;;;36.88;20.83;;;3.80;82.80;;;;;;5027188;28;20213;-69
2022/11/19 10:10:42;;;;;;;42.80;23.33;;;3.80;82.80;;;;;;5024676;28;20737;-69
2022/11/19 10:13:25;;;;;;;41.40;23.10;;;3.80;82.90;;;;;;5023661;28;20674;-69
2022/11/19 10:16:16;;;;;;;45.10;24.42;;;3.90;82.90;;;;;;5023695;28;20216;-69
2022/11/19 10:18:54;;;;;;;37.78;21.23;;;3.90;82.70;;;;;;5027949;28;20266;-69
2022/11/19 10:21:29;;;;;;;34.38;20.38;;;3.80;82.60;;;;;;5029867;28;20205;-69
2022/11/19 10:24:05;;;;;;;33.92;19.80;;;3.80;82.70;;;;;;5020827;28;20212;-69
2022/11/19 10:26:35;;;;;;;30.73;19.35;;;3.80;82.80;;;;;;5025202;28;20205;-68
2022/11/19 10:29:14;;;;;;;30.80;18.25;;;3.80;82.70;;;;;;5019864;28;20244;-69
2022/11/19 10:31:47;;;;;;;32.05;18.60;;;3.80;82.60;;;;;;5025386;28;20274;-68
2022/11/19 10:34:19;;;;;;;30.70;19.30;;;3.80;82.50;;;;;;5028027;28;20213;-68
2022/11/19 10:36:50;;;;;;;33.20;18.60;;;3.80;82.70;;;;;;5024147;28;20218;-68
2022/11/19 10:39:22;;;;;;;37.17;20.90;;;3.80;82.70;;;;;;5025724;28;20233;-70
2022/11/19 10:41:55;;;;;;;42.92;20.45;;;3.80;82.90;;;;;;5026301;28;20623;-70
2022/11/19 10:44:40;;;;;;;37.78;20.10;;;3.80;82.90;;;;;;5028091;28;20205;-70
2022/11/19 10:47:16;;;;;;;37.03;19.15;;;3.80;82.70;;;;;;5030418;28;20209;-70
2022/11/19 10:49:45;;;;;;;47.83;23.58;;;3.80;82.70;;;;;;5028020;28;20233;-69
2022/11/19 10:52:29;;;;;;;40.88;22.00;;;3.80;82.60;;;;;;5026398;28;20216;-70
2022/11/19 10:55:03;;;;;;;40.00;21.70;;;3.80;82.80;;;;;;5028716;28;20214;-70
2022/11/19 10:57:32;;;;;;;38.42;20.05;;;3.80;82.80;;;;;;5020669;28;20221;-70
2022/11/19 11:00:01;;;;;;;34.17;18.75;;;3.90;82.70;;;;;;5025906;28;20251;-69
2022/11/19 11:02:42;;;;;;;38.42;20.77;;;3.90;82.60;;;;;;5021164;28;20205;-69
2022/11/19 11:05:13;;;;;;;35.03;20.25;;;3.80;82.60;;;;;;5027720;28;20220;-69
2022/11/19 11:07:47;;;;;;;42.38;22.45;;;3.80;82.60;;;;;;5030433;28;20206;-69
2022/11/19 11:10:36;;;;;;;41.22;22.50;;;3.80;82.80;;;;;;5023694;28;20575;-69
2022/11/19 11:16:07;;;;;;;37.65;20.35;;;3.90;82.70;;;;;;5029440;28;20209;-69
2022/11/19 11:18:39;;;;;;;30.85;17.48;;;3.80;82.60;;;;;;5023420;28;20229;-69
2022/11/19 11:21:12;;;;;;;32.00;18.67;;;3.80;82.50;;;;;;5023619;28;20205;-70
2022/11/19 11:23:52;;;;;;;31.20;18.25;;;3.80;82.60;;;;;;5028435;28;20201;-69
2022/11/19 11:26:23;;;;;;;35.33;19.55;;;3.80;82.60;;;;;;5023669;28;20239;-69
2022/11/19 11:29:00;;;;;;;44.97;23.70;;;3.80;82.70;;;;;;5025249;28;20229;-69
2022/11/19 11:31:39;;;;;;;31.60;18.00;;;3.80;82.70;;;;;;5026539;28;20208;-69
2022/11/19 11:34:27;;;;;;;40.05;21.77;;;3.80;82.60;;;;;;5027846;28;20249;-69
2022/11/19 11:36:55;;;;;;;40.30;21.60;;;3.80;82.60;;;;;;5026007;28;20216;-70
2022/11/19 11:39:28;;;;;;;33.47;19.98;;;3.70;82.60;;;;;;5024056;28;20229;-69
2022/11/19 11:41:57;;;;;;;35.70;19.13;;;3.70;82.60;;;;;;5019981;28;20206;-70
2022/11/19 11:44:36;;;;;;;36.10;19.95;;;3.70;82.70;;;;;;5020586;28;20205;-70
2022/11/19 11:47:12;;;;;;;38.20;20.80;;;3.70;82.70;;;;;;5023542;28;20302;-70
2022/11/19 11:49:43;;;;;;;34.78;19.73;;;3.70;82.50;;;;;;5026603;28;20210;-69
2022/11/19 11:52:19;;;;;;;38.95;21.45;;;3.70;82.70;;;;;;5024235;28;20198;-70
2022/11/19 11:54:56;;;;;;;34.13;19.40;;;3.70;82.70;;;;;;5026574;28;20243;-70
2022/11/19 11:57:26;;;;;;;29.23;16.45;;;3.70;82.60;;;;;;5020700;28;20208;-70
2022/11/19 11:59:54;;;;;;;30.77;17.90;;;3.70;82.60;;;;;;5021931;28;20233;-70
2022/11/19 12:02:28;;;;;;;33.45;19.55;;;3.70;82.60;;;;;;5029310;28;20205;-69
2022/11/19 12:05:01;;;;;;;32.70;19.08;;;3.60;82.70;;;;;;5026931;28;20264;-70
2022/11/19 12:08:02;;;;;;;37.10;21.48;;;3.60;82.80;;;;;;5026958;28;20261;-69
2022/11/19 12:10:39;;;;;;;36.85;21.92;;;3.60;82.80;;;;;;5021405;28;20212;-69
2022/11/19 12:13:28;;;;;;;37.80;18.70;;;3.60;82.90;;;;;;5023110;28;20220;-69
2022/11/19 12:16:06;;;;;;;43.55;22.63;;;3.70;83.10;;;;;;5025623;28;20208;-69
2022/11/19 12:18:45;;;;;;;36.88;20.98;;;3.80;83.30;;;;;;5022936;28;20232;-69
2022/11/19 12:21:27;;;;;;;44.95;24.92;;;3.80;83.10;;;;;;5026898;28;20279;-70
2022/11/19 12:24:14;;;;;;;33.63;20.30;;;3.90;83.20;;;;;;5022551;28;20212;-70
2022/11/19 12:26:50;;;;;;;46.05;26.20;;;4.00;82.90;;;;;;5022626;28;20279;-70
2022/11/19 12:29:27;;;;;;;34.50;19.48;;;4.00;82.70;;;;;;5027085;28;20702;-70
2022/11/19 12:32:19;;;;;;;48.15;24.83;;;4.00;82.70;;;;;;5030962;28;20205;-70
2022/11/19 12:35:07;;;;;;;36.92;22.48;;;4.00;82.80;;;;;;5024650;28;20217;-70
2022/11/19 12:37:58;;;;;;;34.33;20.63;;;4.00;82.70;;;;;;5025365;28;20208;-70
2022/11/19 12:40:36;;;;;;;43.83;23.73;;;4.00;82.90;;;;;;5018170;28;20213;-70
2022/11/19 12:43:19;;;;;;;32.47;19.63;;;4.00;82.70;;;;;;5027875;28;20255;-70
2022/11/19 12:45:59;;;;;;;42.88;23.80;;;4.00;82.70;;;;;;5031153;28;20246;-70
2022/11/19 12:48:44;;;;;;;40.95;21.30;;;4.00;82.80;;;;;;5022457;28;20212;-70
2022/11/19 12:51:22;;;;;;;40.03;22.83;;;4.00;82.90;;;;;;5029645;28;20236;-71
2022/11/19 12:54:09;;;;;;;36.90;22.00;;;4.00;82.70;;;;;;5027698;28;20209;-70
2022/11/19 12:56:51;;;;;;;45.60;27.55;;;4.00;83.10;;;;;;5025595;28;20217;-71
2022/11/19 12:59:36;;;;;;;40.08;22.52;;;4.10;82.90;;;;;;5037593;28;20216;-71
2022/11/19 13:02:14;;;;;;;33.70;20.65;;;4.10;82.80;;;;;;5033814;28;20267;-71
2022/11/19 13:04:45;;;;;;;34.78;19.30;;;4.10;82.80;;;;;;5031860;28;20213;-70
2022/11/19 13:07:18;;;;;;;32.80;18.67;;;4.10;82.70;;;;;;5031671;28;20270;-71
2022/11/19 13:09:51;;;;;;;36.75;20.80;;;4.10;82.50;;;;;;5028293;28;20786;-71
2022/11/19 13:12:22;;;;;;;41.33;22.60;;;4.00;82.30;;;;;;5029263;28;20201;-71
2022/11/19 13:14:55;;;;;;;37.17;21.70;;;3.90;82.60;;;;;;5027749;28;20201;-71
2022/11/19 13:17:27;;;;;;;38.88;22.88;;;4.00;82.70;;;;;;5020951;28;20616;-71
2022/11/19 13:19:58;;;;;;;40.25;22.27;;;4.00;82.90;;;;;;5026423;28;20225;-70
2022/11/19 13:22:31;;;;;;;44.85;23.60;;;4.00;82.90;;;;;;5030896;28;20208;-70
2022/11/19 13:25:05;;;;;;;46.25;25.40;;;4.10;82.90;;;;;;5027094;28;20201;-70
2022/11/19 13:27:33;;;;;;;58.60;30.25;;;4.10;83.20;;;;;;5028693;28;20562;-68
2022/11/19 13:30:03;;;;;;;63.00;32.50;;;4.20;83.20;;;;;;5026767;28;20221;-71
2022/11/19 13:32:38;;;;;;;61.47;34.75;;;4.30;83.10;;;;;;5028603;28;20202;-71